sensor_id;sensor_type;location;lat;lon;timestamp;pressure;altitude;pressure_sealevel;temperature;humidity
63552;BME280;49698;48.072;7.800;2023-12-20T00:00:13;99648.81;;;6.08;95.32
63552;BME280;49698;48.072;7.800;2023-12-20T00:02:41;99649.09;;;6.11;95.01
63552;BME280;49698;48.072;7.800;2023-12-20T00:05:13;99643.28;;;6.15;95.09
63552;BME280;49698;48.072;7.800;2023-12-20T00:07:41;99632.59;;;6.15;95.19
63552;BME280;49698;48.072;7.800;2023-12-20T00:10:09;99623.03;;;6.19;95.14
63552;BME280;49698;48.072;7.800;2023-12-20T00:12:43;99623.03;;;6.19;95.05
63552;BME280;49698;48.072;7.800;2023-12-20T00:15:11;99612.34;;;6.19;94.60
63552;BME280;49698;48.072;7.800;2023-12-20T00:17:39;99617.69;;;6.19;94.71
63552;BME280;49698;48.072;7.800;2023-12-20T00:20:07;99618.50;;;6.19;94.61
63552;BME280;49698;48.072;7.800;2023-12-20T00:22:35;99617.69;;;6.19;94.65
63552;BME280;49698;48.072;7.800;2023-12-20T00:25:05;99609.16;;;6.17;94.55
63552;BME280;49698;48.072;7.800;2023-12-20T00:27:32;99618.19;;;6.16;94.30
63552;BME280;49698;48.072;7.800;2023-12-20T00:30:02;99629.94;;;6.15;94.83
63552;BME280;49698;48.072;7.800;2023-12-20T00:32:30;99640.06;;;6.12;94.32
63552;BME280;49698;48.072;7.800;2023-12-20T00:34:58;99643.75;;;6.11;94.65
63552;BME280;49698;48.072;7.800;2023-12-20T00:37:25;99645.63;;;6.11;94.35
63552;BME280;49698;48.072;7.800;2023-12-20T00:39:53;99638.38;;;6.06;94.37
63552;BME280;49698;48.072;7.800;2023-12-20T00:42:21;99621.50;;;6.01;95.43
63552;BME280;49698;48.072;7.800;2023-12-20T00:44:49;99622.47;;;5.95;96.29
63552;BME280;49698;48.072;7.800;2023-12-20T00:47:21;99626.91;;;5.89;96.84
63552;BME280;49698;48.072;7.800;2023-12-20T00:49:49;99625.22;;;5.83;97.47
63552;BME280;49698;48.072;7.800;2023-12-20T00:52:18;99626.19;;;5.77;98.50
63552;BME280;49698;48.072;7.800;2023-12-20T00:54:48;99628.00;;;5.71;99.85
63552;BME280;49698;48.072;7.800;2023-12-20T00:57:16;99624.47;;;5.66;100.00
63552;BME280;49698;48.072;7.800;2023-12-20T00:59:44;99612.66;;;5.61;100.00
63552;BME280;49698;48.072;7.800;2023-12-20T01:02:12;99622.44;;;5.56;100.00
63552;BME280;49698;48.072;7.800;2023-12-20T01:04:41;99619.44;;;5.52;100.00
63552;BME280;49698;48.072;7.800;2023-12-20T01:07:09;99627.38;;;5.47;100.00
63552;BME280;49698;48.072;7.800;2023-12-20T01:09:37;99617.19;;;5.44;100.00
63552;BME280;49698;48.072;7.800;2023-12-20T01:12:05;99620.34;;;5.41;100.00
63552;BME280;49698;48.072;7.800;2023-12-20T01:14:33;99620.59;;;5.39;100.00
63552;BME280;49698;48.072;7.800;2023-12-20T01:17:01;99613.66;;;5.38;100.00
63552;BME280;49698;48.072;7.800;2023-12-20T01:19:29;99627.78;;;5.39;100.00
63552;BME280;49698;48.072;7.800;2023-12-20T01:21:59;99612.34;;;5.41;100.00
63552;BME280;49698;48.072;7.800;2023-12-20T01:24:27;99616.88;;;5.40;100.00
63552;BME280;49698;48.072;7.800;2023-12-20T01:26:55;99620.34;;;5.41;100.00
63552;BME280;49698;48.072;7.800;2023-12-20T01:29:23;99608.88;;;5.40;100.00
63552;BME280;49698;48.072;7.800;2023-12-20T01:31:50;99620.34;;;5.41;100.00
63552;BME280;49698;48.072;7.800;2023-12-20T01:34:18;99621.41;;;5.40;100.00
63552;BME280;49698;48.072;7.800;2023-12-20T01:36:47;99617.13;;;5.39;100.00
63552;BME280;49698;48.072;7.800;2023-12-20T01:39:16;99622.19;;;5.40;100.00
63552;BME280;49698;48.072;7.800;2023-12-20T01:41:46;99624.88;;;5.40;100.00
63552;BME280;49698;48.072;7.800;2023-12-20T01:44:14;99621.41;;;5.40;100.00
63552;BME280;49698;48.072;7.800;2023-12-20T01:46:42;99628.34;;;5.41;100.00
63552;BME280;49698;48.072;7.800;2023-12-20T01:49:10;99613.16;;;5.42;100.00
63552;BME280;49698;48.072;7.800;2023-12-20T01:51:38;99622.19;;;5.40;100.00
63552;BME280;49698;48.072;7.800;2023-12-20T01:54:06;99626.72;;;5.40;100.00
63552;BME280;49698;48.072;7.800;2023-12-20T01:56:36;99619.78;;;5.39;100.00
63552;BME280;49698;48.072;7.800;2023-12-20T01:59:05;99616.06;;;5.40;100.00
63552;BME280;49698;48.072;7.800;2023-12-20T02:01:35;99621.41;;;5.40;100.00
63552;BME280;49698;48.072;7.800;2023-12-20T02:04:04;99630.44;;;5.39;100.00
63552;BME280;49698;48.072;7.800;2023-12-20T02:06:32;99618.41;;;5.36;100.00
63552;BME280;49698;48.072;7.800;2023-12-20T02:09:01;99621.06;;;5.36;100.00
63552;BME280;49698;48.072;7.800;2023-12-20T02:11:29;99628.25;;;5.36;100.00
63552;BME280;49698;48.072;7.800;2023-12-20T02:13:59;99636.25;;;5.36;100.00
63552;BME280;49698;48.072;7.800;2023-12-20T02:16:27;99627.69;;;5.34;100.00
63552;BME280;49698;48.072;7.800;2023-12-20T02:18:54;99621.31;;;5.35;100.00
63552;BME280;49698;48.072;7.800;2023-12-20T02:21:25;99623.19;;;5.34;100.00
63552;BME280;49698;48.072;7.800;2023-12-20T02:23:59;99621.56;;;5.33;100.00
63552;BME280;49698;48.072;7.800;2023-12-20T02:26:27;99622.34;;;5.34;100.00
63552;BME280;49698;48.072;7.800;2023-12-20T02:28:55;99615.41;;;5.33;100.00
63552;BME280;49698;48.072;7.800;2023-12-20T02:31:23;99611.69;;;5.34;100.00
63552;BME280;49698;48.072;7.800;2023-12-20T02:33:51;99616.22;;;5.33;100.00
63552;BME280;49698;48.072;7.800;2023-12-20T02:36:19;99603.16;;;5.32;100.00
63552;BME280;49698;48.072;7.800;2023-12-20T02:38:48;99617.28;;;5.32;100.00
63552;BME280;49698;48.072;7.800;2023-12-20T02:41:17;99610.09;;;5.33;100.00
63552;BME280;49698;48.072;7.800;2023-12-20T02:43:45;99615.41;;;5.33;100.00
63552;BME280;49698;48.072;7.800;2023-12-20T02:46:13;99607.41;;;5.33;100.00
63552;BME280;49698;48.072;7.800;2023-12-20T02:48:43;99610.09;;;5.33;100.00
63552;BME280;49698;48.072;7.800;2023-12-20T02:51:11;99614.63;;;5.32;100.00
63552;BME280;49698;48.072;7.800;2023-12-20T02:53:39;99610.34;;;5.31;100.00
63552;BME280;49698;48.072;7.800;2023-12-20T02:56:08;99610.34;;;5.31;100.00
63552;BME280;49698;48.072;7.800;2023-12-20T02:58:36;99618.56;;;5.30;100.00
63552;BME280;49698;48.072;7.800;2023-12-20T03:01:04;99618.56;;;5.30;100.00
63552;BME280;49698;48.072;7.800;2023-12-20T03:03:32;99628.41;;;5.29;100.00
63552;BME280;49698;48.072;7.800;2023-12-20T03:06:00;99624.94;;;5.29;100.00
63552;BME280;49698;48.072;7.800;2023-12-20T03:08:28;99624.94;;;5.29;100.00
63552;BME280;49698;48.072;7.800;2023-12-20T03:10:58;99624.16;;;5.28;100.00
63552;BME280;49698;48.072;7.800;2023-12-20T03:13:27;99625.19;;;5.27;100.00
63552;BME280;49698;48.072;7.800;2023-12-20T03:15:55;99618.22;;;5.26;100.00
63552;BME280;49698;48.072;7.800;2023-12-20T03:18:23;99628.09;;;5.26;100.00
63552;BME280;49698;48.072;7.800;2023-12-20T03:20:51;99624.63;;;5.25;100.00
63552;BME280;49698;48.072;7.800;2023-12-20T03:23:22;99629.94;;;5.25;100.00
63552;BME280;49698;48.072;7.800;2023-12-20T03:25:50;99630.75;;;5.26;100.00
63552;BME280;49698;48.072;7.800;2023-12-20T03:28:18;99641.41;;;5.26;100.00
63552;BME280;49698;48.072;7.800;2023-12-20T03:30:47;99636.09;;;5.26;100.00
63552;BME280;49698;48.072;7.800;2023-12-20T03:33:15;99641.41;;;5.26;100.00
63552;BME280;49698;48.072;7.800;2023-12-20T03:35:43;99639.00;;;5.24;100.00
63552;BME280;49698;48.072;7.800;2023-12-20T03:38:11;99638.19;;;5.24;100.00
63552;BME280;49698;48.072;7.800;2023-12-20T03:40:39;99648.88;;;5.24;100.00
63552;BME280;49698;48.072;7.800;2023-12-20T03:43:06;99652.06;;;5.26;100.00
63552;BME280;49698;48.072;7.800;2023-12-20T03:45:34;99653.13;;;5.25;100.00
63552;BME280;49698;48.072;7.800;2023-12-20T03:48:04;99645.94;;;5.25;100.00
63552;BME280;49698;48.072;7.800;2023-12-20T03:50:33;99657.91;;;5.23;100.00
63552;BME280;49698;48.072;7.800;2023-12-20T03:53:02;99645.94;;;5.25;100.00
63552;BME280;49698;48.072;7.800;2023-12-20T03:55:30;99649.41;;;5.26;100.00
63552;BME280;49698;48.072;7.800;2023-12-20T03:57:58;99648.06;;;5.23;100.00
63552;BME280;49698;48.072;7.800;2023-12-20T04:00:26;99648.06;;;5.23;100.00
63552;BME280;49698;48.072;7.800;2023-12-20T04:02:54;99652.06;;;5.26;100.00
63552;BME280;49698;48.072;7.800;2023-12-20T04:05:23;99640.88;;;5.24;100.00
63552;BME280;49698;48.072;7.800;2023-12-20T04:07:51;99647.25;;;5.23;100.00
63552;BME280;49698;48.072;7.800;2023-12-20T04:10:19;99654.19;;;5.24;100.00
63552;BME280;49698;48.072;7.800;2023-12-20T04:12:46;99637.41;;;5.23;100.00
63552;BME280;49698;48.072;7.800;2023-12-20T04:15:14;99632.88;;;5.24;100.00
63552;BME280;49698;48.072;7.800;2023-12-20T04:17:42;99629.41;;;5.23;100.00
63552;BME280;49698;48.072;7.800;2023-12-20T04:20:10;99639.81;;;5.25;100.00
63552;BME280;49698;48.072;7.800;2023-12-20T04:22:40;99659.03;;;5.27;100.00
63552;BME280;49698;48.072;7.800;2023-12-20T04:25:09;99664.94;;;5.29;100.00
63552;BME280;49698;48.072;7.800;2023-12-20T04:27:37;99658.53;;;5.30;100.00
63552;BME280;49698;48.072;7.800;2023-12-20T04:30:06;99666.53;;;5.30;100.00
63552;BME280;49698;48.072;7.800;2023-12-20T04:32:34;99679.38;;;5.33;100.00
63552;BME280;49698;48.072;7.800;2023-12-20T04:35:02;99675.66;;;5.34;100.00
63552;BME280;49698;48.072;7.800;2023-12-20T04:37:30;99687.16;;;5.34;100.00
63552;BME280;49698;48.072;7.800;2023-12-20T04:39:59;99680.19;;;5.33;100.00
63552;BME280;49698;48.072;7.800;2023-12-20T04:42:27;99675.66;;;5.34;100.00
63552;BME280;49698;48.072;7.800;2023-12-20T04:44:56;99683.66;;;5.34;100.00
63552;BME280;49698;48.072;7.800;2023-12-20T04:47:24;99682.63;;;5.35;100.00
63552;BME280;49698;48.072;7.800;2023-12-20T04:49:52;99686.31;;;5.34;100.00
63552;BME280;49698;48.072;7.800;2023-12-20T04:52:20;99678.31;;;5.34;100.00
63552;BME280;49698;48.072;7.800;2023-12-20T04:54:48;99679.38;;;5.33;100.00
63552;BME280;49698;48.072;7.800;2023-12-20T04:57:18;99686.31;;;5.34;100.00
63552;BME280;49698;48.072;7.800;2023-12-20T04:59:46;99691.66;;;5.34;100.00
63552;BME280;49698;48.072;7.800;2023-12-20T05:02:14;99685.53;;;5.33;100.00
63552;BME280;49698;48.072;7.800;2023-12-20T05:04:42;99687.16;;;5.34;100.00
63552;BME280;49698;48.072;7.800;2023-12-20T05:07:10;99681.00;;;5.34;100.00
63552;BME280;49698;48.072;7.800;2023-12-20T05:09:37;99679.97;;;5.35;100.00
63552;BME280;49698;48.072;7.800;2023-12-20T05:12:06;99694.91;;;5.36;100.00
63552;BME280;49698;48.072;7.800;2023-12-20T05:14:35;99698.63;;;5.35;100.00
63552;BME280;49698;48.072;7.800;2023-12-20T05:17:03;99705.56;;;5.36;100.00
63552;BME280;49698;48.072;7.800;2023-12-20T05:19:31;99696.50;;;5.37;100.00
63552;BME280;49698;48.072;7.800;2023-12-20T05:22:01;99700.78;;;5.38;100.00
63552;BME280;49698;48.072;7.800;2023-12-20T05:24:29;99697.31;;;5.37;100.00
63552;BME280;49698;48.072;7.800;2023-12-20T05:26:57;99711.44;;;5.38;100.00
63552;BME280;49698;48.072;7.800;2023-12-20T05:29:25;99703.44;;;5.38;100.00
63552;BME280;49698;48.072;7.800;2023-12-20T05:31:54;99713.31;;;5.37;100.00
63552;BME280;49698;48.072;7.800;2023-12-20T05:34:22;99708.78;;;5.38;100.00
63552;BME280;49698;48.072;7.800;2023-12-20T05:36:50;99711.44;;;5.38;100.00
63552;BME280;49698;48.072;7.800;2023-12-20T05:39:18;99720.28;;;5.38;100.00
63552;BME280;49698;48.072;7.800;2023-12-20T05:41:46;99714.94;;;5.38;100.00
63552;BME280;49698;48.072;7.800;2023-12-20T05:44:14;99723.97;;;5.37;100.00
63552;BME280;49698;48.072;7.800;2023-12-20T05:46:42;99731.75;;;5.39;100.00
63552;BME280;49698;48.072;7.800;2023-12-20T05:49:11;99728.03;;;5.40;100.00
63552;BME280;49698;48.072;7.800;2023-12-20T05:51:40;99725.94;;;5.42;100.00
63552;BME280;49698;48.072;7.800;2023-12-20T05:54:08;99731.50;;;5.40;100.00
63552;BME280;49698;48.072;7.800;2023-12-20T05:56:36;99726.97;;;5.41;100.00
63552;BME280;49698;48.072;7.800;2023-12-20T05:59:04;99729.63;;;5.41;100.00
63552;BME280;49698;48.072;7.800;2023-12-20T06:01:32;99739.50;;;5.40;100.00
63552;BME280;49698;48.072;7.800;2023-12-20T06:04:00;99744.59;;;5.42;100.00
63552;BME280;49698;48.072;7.800;2023-12-20T06:06:31;99741.09;;;5.42;100.00
63552;BME280;49698;48.072;7.800;2023-12-20T06:08:59;99747.28;;;5.42;100.00
63552;BME280;49698;48.072;7.800;2023-12-20T06:11:27;99745.41;;;5.43;100.00
63552;BME280;49698;48.072;7.800;2023-12-20T06:13:55;99747.28;;;5.42;100.00
63552;BME280;49698;48.072;7.800;2023-12-20T06:16:23;99752.59;;;5.42;100.00
63552;BME280;49698;48.072;7.800;2023-12-20T06:18:50;99751.53;;;5.43;100.00
63552;BME280;49698;48.072;7.800;2023-12-20T06:21:18;99751.75;;;5.42;100.00
63552;BME280;49698;48.072;7.800;2023-12-20T06:23:48;99747.28;;;5.42;100.00
63552;BME280;49698;48.072;7.800;2023-12-20T06:26:16;99752.59;;;5.42;100.00
63552;BME280;49698;48.072;7.800;2023-12-20T06:28:44;99753.63;;;5.41;100.00
63552;BME280;49698;48.072;7.800;2023-12-20T06:31:11;99758.97;;;5.41;100.00
63552;BME280;49698;48.072;7.800;2023-12-20T06:33:39;99759.75;;;5.42;100.00
63552;BME280;49698;48.072;7.800;2023-12-20T06:36:10;99761.63;;;5.41;100.00
63552;BME280;49698;48.072;7.800;2023-12-20T06:38:38;99762.44;;;5.42;100.00
63552;BME280;49698;48.072;7.800;2023-12-20T06:41:08;99766.97;;;5.41;100.00
63552;BME280;49698;48.072;7.800;2023-12-20T06:43:36;99762.44;;;5.42;100.00
63552;BME280;49698;48.072;7.800;2023-12-20T06:46:07;99765.94;;;5.42;100.00
63552;BME280;49698;48.072;7.800;2023-12-20T06:48:36;99773.94;;;5.42;100.00
63552;BME280;49698;48.072;7.800;2023-12-20T06:51:04;99779.25;;;5.42;100.00
63552;BME280;49698;48.072;7.800;2023-12-20T06:53:32;99781.34;;;5.40;100.00
63552;BME280;49698;48.072;7.800;2023-12-20T06:55:59;99778.69;;;5.40;100.00
63552;BME280;49698;48.072;7.800;2023-12-20T06:58:29;99785.06;;;5.39;100.00
63552;BME280;49698;48.072;7.800;2023-12-20T07:00:56;99789.34;;;5.40;100.00
63552;BME280;49698;48.072;7.800;2023-12-20T07:03:24;99777.06;;;5.39;100.00
63552;BME280;49698;48.072;7.800;2023-12-20T07:05:52;99794.91;;;5.38;100.00
63552;BME280;49698;48.072;7.800;2023-12-20T07:08:20;99791.19;;;5.39;100.00
63552;BME280;49698;48.072;7.800;2023-12-20T07:10:48;99794.66;;;5.40;100.00
63552;BME280;49698;48.072;7.800;2023-12-20T07:13:16;99800.25;;;5.38;100.00
63552;BME280;49698;48.072;7.800;2023-12-20T07:15:45;99806.38;;;5.39;100.00
63552;BME280;49698;48.072;7.800;2023-12-20T07:18:13;99811.72;;;5.39;100.00
63552;BME280;49698;48.072;7.800;2023-12-20T07:20:42;99812.75;;;5.38;100.00
63552;BME280;49698;48.072;7.800;2023-12-20T07:23:10;99820.75;;;5.38;100.00
63552;BME280;49698;48.072;7.800;2023-12-20T07:25:38;99823.66;;;5.36;100.00
63552;BME280;49698;48.072;7.800;2023-12-20T07:28:06;99826.56;;;5.35;100.00
63552;BME280;49698;48.072;7.800;2023-12-20T07:30:34;99828.66;;;5.33;100.00
63552;BME280;49698;48.072;7.800;2023-12-20T07:33:05;99823.31;;;5.33;100.00
63552;BME280;49698;48.072;7.800;2023-12-20T07:35:35;99831.78;;;5.30;100.00
63552;BME280;49698;48.072;7.800;2023-12-20T07:38:03;99842.69;;;5.28;100.00
63552;BME280;49698;48.072;7.800;2023-12-20T07:40:31;99844.78;;;5.26;100.00
63552;BME280;49698;48.072;7.800;2023-12-20T07:42:59;99853.81;;;5.25;100.00
63552;BME280;49698;48.072;7.800;2023-12-20T07:45:27;99855.94;;;5.23;100.00
63552;BME280;49698;48.072;7.800;2023-12-20T07:47:55;99856.75;;;5.24;100.00
63552;BME280;49698;48.072;7.800;2023-12-20T07:50:24;99854.28;;;5.22;100.00
63552;BME280;49698;48.072;7.800;2023-12-20T07:52:52;99858.81;;;5.22;100.00
63552;BME280;49698;48.072;7.800;2023-12-20T07:55:20;99862.28;;;5.22;100.00
63552;BME280;49698;48.072;7.800;2023-12-20T07:57:49;99867.88;;;5.21;100.00
63552;BME280;49698;48.072;7.800;2023-12-20T08:00:17;99864.16;;;5.22;100.00
63552;BME280;49698;48.072;7.800;2023-12-20T08:02:45;99858.81;;;5.22;100.00
63552;BME280;49698;48.072;7.800;2023-12-20T08:05:14;99854.28;;;5.22;100.00
63552;BME280;49698;48.072;7.800;2023-12-20T08:07:43;99851.63;;;5.22;100.00
63552;BME280;49698;48.072;7.800;2023-12-20T08:10:11;99860.22;;;5.24;100.00
63552;BME280;49698;48.072;7.800;2023-12-20T08:12:39;99870.63;;;5.26;100.00
63552;BME280;49698;48.072;7.800;2023-12-20T08:15:07;99871.44;;;5.26;100.00
63552;BME280;49698;48.072;7.800;2023-12-20T08:17:35;99876.53;;;5.28;100.00
63552;BME280;49698;48.072;7.800;2023-12-20T08:20:03;99873.88;;;5.28;100.00
63552;BME280;49698;48.072;7.800;2023-12-20T08:22:31;99877.91;;;5.30;100.00
63552;BME280;49698;48.072;7.800;2023-12-20T08:25:01;99875.25;;;5.30;100.00
63552;BME280;49698;48.072;7.800;2023-12-20T08:27:29;99875.56;;;5.34;100.00
63552;BME280;49698;48.072;7.800;2023-12-20T08:29:58;99874.56;;;5.35;100.00
63552;BME280;49698;48.072;7.800;2023-12-20T08:32:26;99880.69;;;5.35;100.00
63552;BME280;49698;48.072;7.800;2023-12-20T08:34:54;99888.44;;;5.37;100.00
63552;BME280;49698;48.072;7.800;2023-12-20T08:37:22;99894.56;;;5.37;100.00
63552;BME280;49698;48.072;7.800;2023-12-20T08:39:50;99893.56;;;5.38;100.00
63552;BME280;49698;48.072;7.800;2023-12-20T08:42:19;99899.44;;;5.40;100.00
63552;BME280;49698;48.072;7.800;2023-12-20T08:44:47;99896.56;;;5.42;100.00
63552;BME280;49698;48.072;7.800;2023-12-20T08:47:15;99902.69;;;5.43;100.00
63552;BME280;49698;48.072;7.800;2023-12-20T08:49:44;99908.84;;;5.43;100.00
63552;BME280;49698;48.072;7.800;2023-12-20T08:52:13;99910.44;;;5.44;100.00
63552;BME280;49698;48.072;7.800;2023-12-20T08:54:41;99917.41;;;5.45;100.00
63552;BME280;49698;48.072;7.800;2023-12-20T08:57:09;99911.03;;;5.46;100.00
63552;BME280;49698;48.072;7.800;2023-12-20T08:59:39;99919.59;;;5.48;100.00
63552;BME280;49698;48.072;7.800;2023-12-20T09:02:07;99919.34;;;5.50;100.00
63552;BME280;49698;48.072;7.800;2023-12-20T09:04:35;99922.59;;;5.52;100.00
63552;BME280;49698;48.072;7.800;2023-12-20T09:07:03;99925.00;;;5.53;100.00
63552;BME280;49698;48.072;7.800;2023-12-20T09:09:31;99922.13;;;5.55;100.00
63552;BME280;49698;48.072;7.800;2023-12-20T09:11:59;99930.69;;;5.57;100.00
63552;BME280;49698;48.072;7.800;2023-12-20T09:14:28;99933.94;;;5.59;100.00
63552;BME280;49698;48.072;7.800;2023-12-20T09:16:57;99932.66;;;5.61;100.00
63552;BME280;49698;48.072;7.800;2023-12-20T09:19:25;99944.16;;;5.62;100.00
63552;BME280;49698;48.072;7.800;2023-12-20T09:21:53;99945.75;;;5.63;100.00
63552;BME280;49698;48.072;7.800;2023-12-20T09:24:21;99952.16;;;5.62;100.00
63552;BME280;49698;48.072;7.800;2023-12-20T09:26:48;99960.16;;;5.62;100.00
63552;BME280;49698;48.072;7.800;2023-12-20T09:29:16;99959.91;;;5.63;100.00
63552;BME280;49698;48.072;7.800;2023-12-20T09:31:45;99955.63;;;5.62;100.00
63552;BME280;49698;48.072;7.800;2023-12-20T09:34:15;99955.84;;;5.61;100.00
63552;BME280;49698;48.072;7.800;2023-12-20T09:36:43;99960.94;;;5.62;100.00
63552;BME280;49698;48.072;7.800;2023-12-20T09:39:13;99956.75;;;5.67;100.00
63552;BME280;49698;48.072;7.800;2023-12-20T09:41:43;99945.63;;;5.70;100.00
63552;BME280;49698;48.072;7.800;2023-12-20T09:44:13;99954.78;;;5.74;100.00
63552;BME280;49698;48.072;7.800;2023-12-20T09:46:42;99955.56;;;5.74;100.00
63552;BME280;49698;48.072;7.800;2023-12-20T09:49:11;99961.00;;;5.79;100.00
63552;BME280;49698;48.072;7.800;2023-12-20T09:51:40;99971.06;;;5.89;100.00
63552;BME280;49698;48.072;7.800;2023-12-20T09:54:08;99964.34;;;5.98;100.00
63552;BME280;49698;48.072;7.800;2023-12-20T09:56:37;99956.66;;;6.02;100.00
63552;BME280;49698;48.072;7.800;2023-12-20T09:59:05;99955.28;;;5.99;100.00
63552;BME280;49698;48.072;7.800;2023-12-20T10:01:33;99948.78;;;5.95;100.00
63552;BME280;49698;48.072;7.800;2023-12-20T10:04:01;99943.09;;;5.92;100.00
63552;BME280;49698;48.072;7.800;2023-12-20T10:06:36;99939.72;;;5.96;100.00
63552;BME280;49698;48.072;7.800;2023-12-20T10:09:05;99943.78;;;5.99;100.00
63552;BME280;49698;48.072;7.800;2023-12-20T10:11:34;99942.97;;;5.98;100.00
63552;BME280;49698;48.072;7.800;2023-12-20T10:14:03;99948.66;;;6.02;100.00
63552;BME280;49698;48.072;7.800;2023-12-20T10:16:32;99946.66;;;6.09;100.00
63552;BME280;49698;48.072;7.800;2023-12-20T10:19:00;99948.69;;;6.19;100.00
63552;BME280;49698;48.072;7.800;2023-12-20T10:21:29;99942.94;;;6.27;99.80
63552;BME280;49698;48.072;7.800;2023-12-20T10:23:57;99948.38;;;6.32;97.97
63552;BME280;49698;48.072;7.800;2023-12-20T10:26:27;99943.06;;;6.32;96.81
63552;BME280;49698;48.072;7.800;2023-12-20T10:28:56;99933.97;;;6.33;96.56
63552;BME280;49698;48.072;7.800;2023-12-20T10:31:28;99930.59;;;6.37;95.75
63552;BME280;49698;48.072;7.800;2023-12-20T10:33:56;99920.72;;;6.38;93.85
63552;BME280;49698;48.072;7.800;2023-12-20T10:36:25;99925.09;;;6.44;93.14
63552;BME280;49698;48.072;7.800;2023-12-20T10:38:54;99915.28;;;6.50;92.79
63552;BME280;49698;48.072;7.800;2023-12-20T10:41:24;99919.41;;;6.57;91.18
63552;BME280;49698;48.072;7.800;2023-12-20T10:43:53;99911.16;;;6.59;90.47
63552;BME280;49698;48.072;7.800;2023-12-20T10:46:22;99925.06;;;6.61;89.08
63552;BME280;49698;48.072;7.800;2023-12-20T10:48:53;99919.25;;;6.64;88.56
63552;BME280;49698;48.072;7.800;2023-12-20T10:51:22;99920.13;;;6.70;87.65
63552;BME280;49698;48.072;7.800;2023-12-20T10:53:51;99923.69;;;6.75;87.85
63552;BME280;49698;48.072;7.800;2023-12-20T10:56:20;99926.44;;;6.80;87.92
63552;BME280;49698;48.072;7.800;2023-12-20T10:58:50;99924.66;;;6.86;86.93
63552;BME280;49698;48.072;7.800;2023-12-20T11:01:19;99916.13;;;6.89;85.92
63552;BME280;49698;48.072;7.800;2023-12-20T11:03:48;99917.28;;;6.93;84.14
63552;BME280;49698;48.072;7.800;2023-12-20T11:06:25;99905.44;;;6.89;83.20
63552;BME280;49698;48.072;7.800;2023-12-20T11:08:57;99912.44;;;6.90;82.43
63552;BME280;49698;48.072;7.800;2023-12-20T11:11:37;99914.63;;;6.93;81.93
63552;BME280;49698;48.072;7.800;2023-12-20T11:14:08;99908.53;;;6.98;81.17
63552;BME280;49698;48.072;7.800;2023-12-20T11:16:41;99900.25;;;6.99;79.79
63552;BME280;49698;48.072;7.800;2023-12-20T11:19:11;99896.84;;;7.04;79.90
63552;BME280;49698;48.072;7.800;2023-12-20T11:21:40;99897.16;;;7.07;79.02
63552;BME280;49698;48.072;7.800;2023-12-20T11:24:09;99902.00;;;7.10;77.83
63552;BME280;49698;48.072;7.800;2023-12-20T11:26:37;99897.78;;;7.15;77.07
63552;BME280;49698;48.072;7.800;2023-12-20T11:31:53;99916.94;;;7.28;76.69
63552;BME280;49698;48.072;7.800;2023-12-20T11:34:22;99898.28;;;7.33;76.31
63552;BME280;49698;48.072;7.800;2023-12-20T11:36:53;99899.09;;;7.34;75.89
63552;BME280;49698;48.072;7.800;2023-12-20T11:39:27;99900.97;;;7.33;76.09
63552;BME280;49698;48.072;7.800;2023-12-20T11:41:56;99899.84;;;7.29;76.25
63552;BME280;49698;48.072;7.800;2023-12-20T11:44:25;99887.53;;;7.28;76.35
63552;BME280;49698;48.072;7.800;2023-12-20T11:46:59;99888.34;;;7.29;77.03
63552;BME280;49698;48.072;7.800;2023-12-20T11:49:27;99887.22;;;7.25;75.45
63552;BME280;49698;48.072;7.800;2023-12-20T11:51:56;99882.91;;;7.24;76.13
63552;BME280;49698;48.072;7.800;2023-12-20T11:54:24;99878.94;;;7.26;75.76
63552;BME280;49698;48.072;7.800;2023-12-20T11:56:52;99877.34;;;7.25;75.21
63552;BME280;49698;48.072;7.800;2023-12-20T11:59:20;99883.19;;;7.22;74.83
63552;BME280;49698;48.072;7.800;2023-12-20T12:01:48;99881.78;;;7.20;74.49
63552;BME280;49698;48.072;7.800;2023-12-20T12:04:18;99880.19;;;7.19;74.69
63552;BME280;49698;48.072;7.800;2023-12-20T12:06:46;99886.59;;;7.18;74.76
63552;BME280;49698;48.072;7.800;2023-12-20T12:09:14;99882.88;;;7.19;74.12
63552;BME280;49698;48.072;7.800;2023-12-20T12:11:42;99877.50;;;7.19;74.17
63552;BME280;49698;48.072;7.800;2023-12-20T12:14:10;99876.72;;;7.18;73.63
63552;BME280;49698;48.072;7.800;2023-12-20T12:16:39;99881.25;;;7.18;73.91
63552;BME280;49698;48.072;7.800;2023-12-20T12:19:06;99870.25;;;7.14;73.85
63552;BME280;49698;48.072;7.800;2023-12-20T12:21:36;99864.31;;;7.12;73.87
63552;BME280;49698;48.072;7.800;2023-12-20T12:24:07;99871.81;;;7.10;73.76
63552;BME280;49698;48.072;7.800;2023-12-20T12:26:38;99869.31;;;7.03;72.88
63552;BME280;49698;48.072;7.800;2023-12-20T12:29:07;99880.47;;;7.00;73.17
63552;BME280;49698;48.072;7.800;2023-12-20T12:31:35;99881.47;;;6.94;72.19
63552;BME280;49698;48.072;7.800;2023-12-20T12:34:03;99881.97;;;6.91;72.56
63552;BME280;49698;48.072;7.800;2023-12-20T12:36:31;99886.75;;;6.89;72.54
63552;BME280;49698;48.072;7.800;2023-12-20T12:39:03;99893.63;;;6.85;73.12
63552;BME280;49698;48.072;7.800;2023-12-20T12:41:31;99894.69;;;6.84;73.32
63552;BME280;49698;48.072;7.800;2023-12-20T12:43:59;99883.47;;;6.82;73.96
63552;BME280;49698;48.072;7.800;2023-12-20T12:46:30;99889.28;;;6.79;74.22
63552;BME280;49698;48.072;7.800;2023-12-20T12:48:59;99880.69;;;6.77;74.39
63552;BME280;49698;48.072;7.800;2023-12-20T12:51:27;99884.44;;;6.76;74.65
63552;BME280;49698;48.072;7.800;2023-12-20T12:53:55;99877.47;;;6.75;74.52
63552;BME280;49698;48.072;7.800;2023-12-20T12:56:24;99880.38;;;6.73;74.64
63552;BME280;49698;48.072;7.800;2023-12-20T12:58:52;99876.34;;;6.71;74.52
63552;BME280;49698;48.072;7.800;2023-12-20T13:01:20;99874.72;;;6.70;74.67
63552;BME280;49698;48.072;7.800;2023-12-20T13:03:48;99880.31;;;6.68;74.96
63552;BME280;49698;48.072;7.800;2023-12-20T13:06:15;99869.88;;;6.67;75.00
63552;BME280;49698;48.072;7.800;2023-12-20T13:08:43;99866.41;;;6.66;74.97
63552;BME280;49698;48.072;7.800;2023-12-20T13:11:11;99884.28;;;6.66;75.04